• Join FlightAware (Why Join?)
  • Login
  • US Flag 
09:50AM EDT


 

Airport Tracker/Info


-or-


 

Live Flight TrackerFlight Track Log ✈ ASA128 ✈ 15-Jan-2014 ✈ PAFA / FAI - KSEA

Flight Track Log - Related Links

Times and Time Zones

All times are in EST time to prevent confusion due to time zone crossing. See the ASA128 flight status page for this flight to view local times or setup timezone preferences in your user account.

Time Position Orientation Groundspeed Altitude Reporting Facility
EST Latitude Longitude Course Direction KTS MPH feet Rate Location/Type
05:29AM 64.7000 -147.7667 121° Southeast 250 288 5,100  Level Anchorage Center
05:30AM 64.6833 -147.5833 102° East 290 334 7,800 2,520 Climbing Anchorage Center
05:31AM 64.6667 -147.4000 102° East 310 357 10,200 2,460 Climbing Anchorage Center
05:32AM 64.6500 -147.1833 100° East 320 368 12,800 2,100 Climbing Anchorage Center
05:33AM 64.6167 -147.0000 113° Southeast 350 403 14,500 2,280 Climbing Anchorage Center
05:34AM 64.2483 -146.2859 125° Southeast  Level Estimated
05:34AM 64.5500 -146.7833 126° Southeast 370 426 17,500  Level Anchorage Center
05:35AM 64.1837 -146.0373 121° Southeast  Level FlightAware Approximate
05:35AM 64.4833 -146.6000 130° Southeast 380 437 20,400  Level Anchorage Center
05:36AM 64.4333 -146.3833 118° Southeast 390 449 22,800 2,160 Climbing Anchorage Center
05:37AM 64.3667 -146.1667 125° Southeast 400 460 24,800 1,920 Climbing Anchorage Center
05:38AM 64.3000 -145.9500 125° Southeast 410 472 26,700 1,440 Climbing Anchorage Center
05:39AM 64.2333 -145.7333 125° Southeast 430 495 27,800 1,200 Climbing Anchorage Center
05:40AM 64.1500 -145.4833 127° Southeast 450 518 29,200 1,200 Climbing Anchorage Center
05:41AM 64.0833 -145.2500 123° Southeast 460 529 30,300 1,140 Climbing Anchorage Center
05:42AM 64.0000 -145.0000 127° Southeast 470 541 31,500 1,440 Climbing Anchorage Center
05:43AM 63.9333 -144.7667 123° Southeast 470 541 33,200 1,200 Climbing Anchorage Center
05:44AM 63.8500 -144.5500 131° Southeast 480 552 34,000 720 Climbing Anchorage Center
05:45AM 63.7667 -144.3000 127° Southeast 490 564 34,700 840 Climbing Anchorage Center
05:46AM 63.6833 -144.0667 129° Southeast 490 564 35,700 1,140 Climbing Anchorage Center
05:47AM 63.6167 -143.8000 119° Southeast 500 575 37,000 600 Climbing Anchorage Center
05:48AM 63.5333 -143.5667 129° Southeast 480 552 37,000  Level Anchorage Center
05:49AM 63.4500 -143.3333 129° Southeast 480 552 37,000  Level Anchorage Center
05:50AM 63.3667 -143.1000 128° Southeast 480 552 37,000  Level Anchorage Center
06:09AM 61.5167 -139.2833 148° Southeast 480 552 37,000  Level Anchorage Center
06:10AM 61.6878 -139.5809 140° Southeast  Level FlightAware Approximate
06:10AM 61.4167 -139.1167 141° Southeast 470 541 37,000  Level Anchorage Center
06:11AM 61.5895 -139.4087 140° Southeast  Level FlightAware Approximate
06:11AM 61.3000 -138.9333 143° Southeast 480 552 37,000  Level Anchorage Center
06:12AM 61.4910 -139.2375 140° Southeast  Level FlightAware Approximate
06:12AM 61.2000 -138.8000 147° Southeast 480 552 37,000  Level Anchorage Center
06:13AM 61.3923 -139.0675 140° Southeast  Level FlightAware Approximate
06:13AM 61.0833 -138.6500 148° Southeast 480 552 37,000  Level Anchorage Center
06:14AM 61.2877 -138.9070 148° Southeast  Level FlightAware Approximate
06:14AM 60.9667 -138.5000 148° Southeast 480 552 37,000  Level Anchorage Center
06:15AM 61.1793 -138.7661 148° Southeast  Level FlightAware Approximate
06:15AM 60.8500 -138.3500 148° Southeast 490 564 37,000  Level Anchorage Center
06:16AM 60.7333 -138.2000 148° Southeast 480 552 37,000  Level Anchorage Center
06:17AM 60.6167 -138.0667 151° Southeast 490 564 37,000  Level Anchorage Center
06:18AM 60.5000 -137.9167 148° Southeast 480 552 37,000  Level Anchorage Center
06:19AM 60.3833 -137.7667 148° Southeast 490 564 37,000  Level Anchorage Center
06:20AM 60.2667 -137.6333 150° Southeast 480 552 37,000  Level Anchorage Center
06:21AM 60.1500 -137.4833 147° Southeast 480 552 37,000  Level Anchorage Center
06:22AM 60.0333 -137.3500 150° Southeast 480 552 37,000  Level Anchorage Center
06:23AM 59.9167 -137.2167 150° Southeast 490 564 37,000  Level Anchorage Center
06:24AM 59.8000 -137.0667 147° Southeast 500 575 37,000  Level Anchorage Center
06:25AM 59.6833 -136.9333 150° Southeast 490 564 37,000  Level Anchorage Center
06:26AM 59.5667 -136.7833 147° Southeast 490 564 37,000  Level Anchorage Center
06:27AM 59.4500 -136.6500 150° Southeast 500 575 37,000  Level Anchorage Center
06:28AM 59.3167 -136.5000 150° Southeast 510 587 37,000  Level Anchorage Center
06:29AM 59.2000 -136.3667 150° Southeast 500 575 37,000  Level Anchorage Center
06:30AM 59.0833 -136.2333 150° Southeast 490 564 37,000  Level Anchorage Center
06:31AM 58.9667 -136.1000 149° Southeast 490 564 37,000  Level Anchorage Center
06:32AM 58.8500 -135.9667 149° Southeast 490 564 37,000  Level Anchorage Center
06:33AM 58.7333 -135.8500 153° Southeast 480 552 37,000  Level Anchorage Center
06:34AM 58.6167 -135.7333 152° Southeast 480 552 37,000  Level Anchorage Center
06:35AM 58.5000 -135.6000 149° Southeast 490 564 37,000  Level Anchorage Center
06:36AM 58.3667 -135.4667 152° Southeast 500 575 37,000  Level Anchorage Center
06:38AM 58.2500 -135.3333 149° Southeast 490 564 37,000  Level Anchorage Center
06:39AM 58.1333 -135.2000 149° Southeast 490 564 37,000  Level Anchorage Center
06:40AM 58.0333 -135.0167 136° Southeast 510 587 37,000 240 Level Anchorage Center
06:41AM 57.9167 -134.8333 140° Southeast 520 598 37,500 600 Climbing Anchorage Center
06:42AM 57.8167 -134.6500 136° Southeast 520 598 38,300 720 Climbing Anchorage Center
06:43AM 57.7000 -134.4833 143° Southeast 510 587 39,000 300 Climbing Anchorage Center
06:44AM 57.6000 -134.3167 138° Southeast 510 587 39,000  Level Anchorage Center
06:45AM 57.5000 -134.1333 135° Southeast 510 587 39,000  Level Anchorage Center
06:46AM 57.3833 -133.9667 142° Southeast 500 575 39,000  Level Anchorage Center
06:47AM 57.2833 -133.8000 138° Southeast 500 575 39,000  Level Anchorage Center
06:48AM 57.1667 -133.6333 142° Southeast 500 575 39,000  Level Anchorage Center
06:49AM 57.0667 -133.4667 138° Southeast 500 575 39,000  Level Anchorage Center
06:50AM 56.9667 -133.3167 141° Southeast 500 575 39,000  Level Anchorage Center
06:51AM 56.8500 -133.1500 142° Southeast 510 587 39,000  Level Anchorage Center
06:52AM 56.7500 -132.9833 138° Southeast 510 587 39,000  Level Anchorage Center
06:53AM 56.6333 -132.8167 142° Southeast 510 587 39,000  Level Anchorage Center
06:54AM 56.5333 -132.6500 137° Southeast 500 575 39,000  Level Anchorage Center
06:55AM 56.4167 -132.5000 145° Southeast 500 575 39,000  Level Anchorage Center
06:56AM 56.3167 -132.3333 137° Southeast 490 564 39,000  Level Anchorage Center
06:57AM 56.2000 -132.1833 144° Southeast 500 575 39,000  Level Anchorage Center
06:58AM 56.1000 -132.0167 137° Southeast 490 564 39,000  Level Anchorage Center
06:59AM 55.9833 -131.8667 144° Southeast 500 575 39,000  Level Anchorage Center
07:00AM 55.8833 -131.7167 140° Southeast 510 587 39,000  Level Anchorage Center
07:01AM 55.7667 -131.5667 144° Southeast 500 575 39,000  Level Anchorage Center
07:02AM 55.6667 -131.4000 137° Southeast 510 587 39,000  Level Anchorage Center
07:03AM 55.5333 -131.2333 145° Southeast 510 587 39,000  Level Anchorage Center
07:04AM 55.4333 -131.0833 140° Southeast 520 598 39,000  Level Anchorage Center
07:05AM 55.3167 -130.9167 141° Southeast 510 587 39,000  Level Anchorage Center
07:06AM 55.2000 -130.7667 144° Southeast 520 598 39,000  Level Anchorage Center
07:07AM 55.0833 -130.6167 144° Southeast 520 598 39,000  Level Anchorage Center
07:08AM 54.9833 -130.4667 139° Southeast 520 598 39,000  Level Anchorage Center
07:09AM 54.7833 -130.2500 148° Southeast 530 610 39,000  Level Vancouver Center
07:10AM 54.6500 -130.0833 144° Southeast 530 610 39,000  Level Vancouver Center
07:11AM 54.5500 -129.9333 139° Southeast 530 610 39,000  Level Vancouver Center
07:12AM 54.4167 -129.7667 144° Southeast 520 598 39,000  Level Vancouver Center
07:13AM 54.3167 -129.6333 142° Southeast 520 598 39,000  Level Vancouver Center
07:14AM 54.2000 -129.4833 143° Southeast 520 598 39,000  Level Vancouver Center
07:15AM 54.0833 -129.3500 146° Southeast 520 598 39,000  Level Vancouver Center
07:16AM 53.9667 -129.1833 140° Southeast 520 598 39,000  Level Vancouver Center
07:17AM 53.8500 -129.0333 143° Southeast 510 587 39,000  Level Vancouver Center
07:18AM 53.7333 -128.9000 146° Southeast 520 598 39,000  Level Vancouver Center
07:19AM 53.6167 -128.7500 143° Southeast 510 587 39,000  Level Vancouver Center
07:20AM 53.5167 -128.6333 145° Southeast 510 587 39,000  Level Vancouver Center
07:21AM 53.3833 -128.4667 143° Southeast 500 575 39,000  Level Vancouver Center
07:22AM 53.2833 -128.3500 145° Southeast 510 587 39,000  Level Vancouver Center
07:23AM 53.1667 -128.2000 142° Southeast 510 587 39,000  Level Vancouver Center
07:24AM 53.0500 -128.0833 149° Southeast 520 598 39,000  Level Vancouver Center
07:25AM 52.9167 -127.9167 143° Southeast 510 587 39,000  Level Vancouver Center
07:26AM 52.8167 -127.8000 145° Southeast 510 587 39,000  Level Vancouver Center
07:27AM 52.7000 -127.6500 142° Southeast 510 587 39,000  Level Vancouver Center
07:28AM 52.5833 -127.5333 149° Southeast 510 587 39,000  Level Vancouver Center
07:29AM 52.4667 -127.3833 142° Southeast 510 587 39,000  Level Vancouver Center
07:30AM 52.3500 -127.2333 142° Southeast 510 587 39,000  Level Vancouver Center
07:31AM 52.2333 -127.1167 149° Southeast 510 587 39,000  Level Vancouver Center
07:32AM 52.1167 -126.9833 145° Southeast 510 587 39,000  Level Vancouver Center
07:33AM 52.0000 -126.8667 148° Southeast 510 587 39,000  Level Vancouver Center
07:34AM 51.8833 -126.7500 148° Southeast 510 587 39,000  Level Vancouver Center
07:35AM 51.7667 -126.6000 141° Southeast 520 598 39,000  Level Vancouver Center
07:36AM 51.6500 -126.4667 145° Southeast 520 598 39,000  Level Vancouver Center
07:37AM 51.5167 -126.3167 145° Southeast 520 598 39,000  Level Vancouver Center
07:38AM 51.4000 -126.2000 148° Southeast 520 598 39,000  Level Vancouver Center
07:39AM 51.2833 -126.1000 152° Southeast 520 598 39,000  Level Vancouver Center
07:40AM 51.1667 -125.9500 141° Southeast 520 598 39,000  Level Vancouver Center
07:41AM 51.0500 -125.8167 144° Southeast 510 587 39,000  Level Vancouver Center
07:42AM 50.9333 -125.7000 148° Southeast 510 587 39,000  Level Vancouver Center
07:43AM 50.8167 -125.5667 144° Southeast 510 587 39,000  Level Vancouver Center
07:44AM 50.7000 -125.4667 151° Southeast 510 587 39,000  Level Vancouver Center
07:45AM 50.5833 -125.3167 141° Southeast 510 587 39,000  Level Vancouver Center
07:46AM 50.4667 -125.2167 151° Southeast 510 587 39,000  Level Vancouver Center
07:47AM 50.3333 -125.0833 147° Southeast 510 587 39,000  Level Vancouver Center
07:48AM 50.2167 -124.9667 147° Southeast 510 587 39,000  Level Vancouver Center
07:49AM 50.1000 -124.8333 144° Southeast 500 575 39,000  Level Vancouver Center
07:50AM 49.9833 -124.7333 151° Southeast 500 575 39,000  Level Vancouver Center
07:51AM 49.8667 -124.6000 144° Southeast 500 575 39,000  Level Vancouver Center
07:52AM 49.7500 -124.5000 151° Southeast 500 575 39,000  Level Vancouver Center
07:53AM 49.6333 -124.3667 143° Southeast 500 575 39,000  Level Vancouver Center
07:54AM 49.5167 -124.2667 151° Southeast 500 575 39,000  Level Vancouver Center
07:55AM 49.4000 -124.1667 151° Southeast 500 575 39,000 -300 Level Vancouver Center
07:56AM 49.2833 -124.0333 143° Southeast 480 552 38,400 -1,020 Descending Vancouver Center
07:57AM 49.1833 -123.9500 151° Southeast 460 529 37,000 -2,040 Descending Vancouver Center
07:58AM 49.0667 -123.8167 143° Southeast 460 529 34,400 -2,640 Descending Vancouver Center
07:59AM 48.9667 -123.7167 147° Southeast 460 529 31,800 -2,700 Descending Vancouver Center
08:00AM 48.8500 -123.6167 151° Southeast 470 541 29,000 -2,580 Descending Vancouver Center
08:01AM 48.7500 -123.5167 147° Southeast 470 541 26,700 -2,280 Descending Vancouver Center
08:02AM 48.6333 -123.4000 147° Southeast 470 541 24,500 -2,160 Descending Vancouver Center
08:03AM 48.5500 -123.2667 133° Southeast 460 529 22,400 -2,040 Descending Vancouver Center
08:04AM 48.4500 -123.1500 142° Southeast 440 506 20,500 -1,620 Descending Vancouver Center
08:05AM 48.4064 -123.0553 125° Southeast 437 503 19,500 -1,380 Descending Seattle Center
08:06AM 48.3236 -122.9311 135° Southeast 426 490 18,000 -1,620 Descending Seattle Center
08:06AM 48.3131 -122.9136 132° Southeast 419 482 17,700 -300 Descending Seattle Center
08:07AM 48.2872 -122.8711 132° Southeast 412 474 17,900 -600 Climbing Seattle Center
08:07AM 48.2506 -122.8008 128° Southeast 407 468 17,200 -1,320 Descending Seattle Center
08:08AM 48.2197 -122.7489 132° Southeast 385 443 16,600 -1,320 Descending Seattle Center
08:08AM 48.1819 -122.6814 130° Southeast 379 436 15,900 -1,320 Descending Seattle Center
08:09AM 48.1494 -122.6253 131° Southeast 362 417 15,300 -1,500 Descending Seattle Center
08:09AM 48.1169 -122.5656 129° Southeast 365 420 14,400 -2,520 Descending Seattle Center
08:10AM 48.0728 -122.5050 137° Southeast 375 432 12,500 -3,540 Descending Seattle Center
08:10AM 48.0294 -122.4778 157° South 374 430 10,900 -2,340 Descending Seattle Center
08:11AM 47.9736 -122.4542 164° South 386 444 10,200 -720 Descending Seattle Center
08:11AM 47.9328 -122.4347 162° South 364 419 10,200 -600 Level Seattle Center
08:12AM 47.8856 -122.4136 163° South 313 360 9,600 -900 Descending Seattle Center
08:12AM 47.8492 -122.3961 162° South 312 359 9,300 -1,920 Descending Seattle Center
08:13AM 47.8006 -122.3750 164° South 289 333 7,700 -2,820 Descending Seattle Center
08:13AM 47.7689 -122.3617 164° South 297 342 6,500 -2,640 Descending Seattle Center
08:14AM 47.7233 -122.3419 164° South 287 330 5,100 -2,040 Descending Seattle Center
08:14AM 47.6939 -122.3286 163° South 286 329 4,500 -1,020 Descending Seattle Center
08:15AM 47.6525 -122.3086 162° South 232 267 4,000 -600 Descending Seattle Center
08:15AM 47.6322 -122.3061 175° South 246 283 3,900 -1,140 Descending Seattle Center
08:16AM 47.5900 -122.3069 181° South 219 252 2,900 -1,320 Descending Seattle Center
08:16AM 47.5711 -122.3072 181° South 223 257 2,600 -1,140 Descending Seattle Center
08:17AM 47.5328 -122.3092 182° South 208 239 1,800 -1,140 Descending Seattle Center
08:17AM 47.5136 -122.3078 177° South 190 219 1,500 -900 Descending Seattle Center
08:18AM 47.4878 -122.3075 180° South 148 170 900 -840 Descending Seattle Center
08:18AM 47.4719 -122.3081 181° South 154 177 700 -420 Descending Seattle Center
08:19AM 47.4336 -122.3097 182° South 151 174 400 -300 Descending Seattle Center
08:21AM 47.4333 -122.3000 North  Level FlightAware Approximate